sensor_id;sensor_type;location;lat;lon;timestamp;pressure;altitude;pressure_sealevel;temperature;humidity
75013;BME280;63567;49.956;20.130;2023-06-14T00:00:21;96921.09;;;11.47;79.75
75013;BME280;63567;49.956;20.130;2023-06-14T00:02:47;96920.09;;;11.48;79.10
75013;BME280;63567;49.956;20.130;2023-06-14T00:05:12;96919.06;;;11.49;78.96
75013;BME280;63567;49.956;20.130;2023-06-14T00:07:39;96917.28;;;11.49;79.34
75013;BME280;63567;49.956;20.130;2023-06-14T00:10:09;96920.91;;;11.48;79.02
75013;BME280;63567;49.956;20.130;2023-06-14T00:12:35;96921.72;;;11.49;79.10
75013;BME280;63567;49.956;20.130;2023-06-14T00:15:01;96919.91;;;11.49;79.06
75013;BME280;63567;49.956;20.130;2023-06-14T00:17:27;96925.19;;;11.49;79.26
75013;BME280;63567;49.956;20.130;2023-06-14T00:19:58;96918.25;;;11.48;79.56
75013;BME280;63567;49.956;20.130;2023-06-14T00:22:24;96924.97;;;11.51;79.08
75013;BME280;63567;49.956;20.130;2023-06-14T00:24:52;96924.78;;;11.52;79.52
75013;BME280;63567;49.956;20.130;2023-06-14T00:27:18;96910.97;;;11.50;79.30
75013;BME280;63567;49.956;20.130;2023-06-14T00:29:43;96923.16;;;11.51;79.32
75013;BME280;63567;49.956;20.130;2023-06-14T00:32:08;96922.13;;;11.52;79.75
75013;BME280;63567;49.956;20.130;2023-06-14T00:34:34;96920.31;;;11.53;79.44
75013;BME280;63567;49.956;20.130;2023-06-14T00:37:00;96921.94;;;11.54;79.23
75013;BME280;63567;49.956;20.130;2023-06-14T00:39:25;96918.28;;;11.55;79.37
75013;BME280;63567;49.956;20.130;2023-06-14T00:41:50;96917.47;;;11.55;79.10
75013;BME280;63567;49.956;20.130;2023-06-14T00:44:16;96913.00;;;11.55;79.16
75013;BME280;63567;49.956;20.130;2023-06-14T00:46:41;96915.66;;;11.55;79.50
75013;BME280;63567;49.956;20.130;2023-06-14T00:49:08;96913.00;;;11.55;79.48
75013;BME280;63567;49.956;20.130;2023-06-14T00:51:34;96909.75;;;11.53;79.29
75013;BME280;63567;49.956;20.130;2023-06-14T00:53:59;96902.47;;;11.55;79.27
75013;BME280;63567;49.956;20.130;2023-06-14T00:56:26;96904.09;;;11.56;79.27
75013;BME280;63567;49.956;20.130;2023-06-14T00:58:52;96900.84;;;11.54;79.63
75013;BME280;63567;49.956;20.130;2023-06-14T01:01:18;96900.84;;;11.54;79.19
75013;BME280;63567;49.956;20.130;2023-06-14T01:03:43;96898.00;;;11.56;79.42
75013;BME280;63567;49.956;20.130;2023-06-14T01:06:35;96900.25;;;11.59;79.06
75013;BME280;63567;49.956;20.130;2023-06-14T01:09:14;96895.59;;;11.61;79.20
75013;BME280;63567;49.956;20.130;2023-06-14T01:11:49;96890.50;;;11.59;79.20
75013;BME280;63567;49.956;20.130;2023-06-14T01:14:16;96887.88;;;11.59;79.28
75013;BME280;63567;49.956;20.130;2023-06-14T01:16:43;96871.41;;;11.50;79.33
75013;BME280;63567;49.956;20.130;2023-06-14T01:19:11;96885.84;;;11.61;79.08
75013;BME280;63567;49.956;20.130;2023-06-14T01:21:38;96874.25;;;11.56;79.29
75013;BME280;63567;49.956;20.130;2023-06-14T01:24:08;96874.66;;;11.59;79.30
75013;BME280;63567;49.956;20.130;2023-06-14T01:26:34;96875.69;;;11.58;79.79
75013;BME280;63567;49.956;20.130;2023-06-14T01:29:01;96873.25;;;11.57;79.36
75013;BME280;63567;49.956;20.130;2023-06-14T01:31:26;96884.63;;;11.64;79.52
75013;BME280;63567;49.956;20.130;2023-06-14T01:33:52;96863.31;;;11.59;79.45
75013;BME280;63567;49.956;20.130;2023-06-14T01:36:22;96867.56;;;11.60;79.94
75013;BME280;63567;49.956;20.130;2023-06-14T01:38:48;96876.13;;;11.68;79.42
75013;BME280;63567;49.956;20.130;2023-06-14T01:41:16;96863.94;;;11.61;79.66
75013;BME280;63567;49.956;20.130;2023-06-14T01:43:43;96864.13;;;11.59;79.48
75013;BME280;63567;49.956;20.130;2023-06-14T01:46:09;96860.44;;;11.54;79.94
75013;BME280;63567;49.956;20.130;2023-06-14T01:48:36;96862.69;;;11.57;80.22
75013;BME280;63567;49.956;20.130;2023-06-14T01:51:01;96868.41;;;11.60;80.21
75013;BME280;63567;49.956;20.130;2023-06-14T01:53:26;96866.75;;;11.59;80.04
75013;BME280;63567;49.956;20.130;2023-06-14T01:55:51;96873.28;;;11.63;79.67
75013;BME280;63567;49.956;20.130;2023-06-14T01:58:19;96879.16;;;11.65;79.83
75013;BME280;63567;49.956;20.130;2023-06-14T02:00:44;96872.25;;;11.64;79.83
75013;BME280;63567;49.956;20.130;2023-06-14T02:03:10;96864.13;;;11.59;80.17
75013;BME280;63567;49.956;20.130;2023-06-14T02:05:37;96874.47;;;11.61;79.95
75013;BME280;63567;49.956;20.130;2023-06-14T02:08:04;96881.19;;;11.63;80.19
75013;BME280;63567;49.956;20.130;2023-06-14T02:10:29;96869.41;;;11.59;80.38
75013;BME280;63567;49.956;20.130;2023-06-14T02:12:54;96869.81;;;11.63;80.43
75013;BME280;63567;49.956;20.130;2023-06-14T02:15:19;96866.13;;;11.57;80.94
75013;BME280;63567;49.956;20.130;2023-06-14T02:17:47;96866.13;;;11.57;80.91
75013;BME280;63567;49.956;20.130;2023-06-14T02:20:13;96866.75;;;11.59;81.13
75013;BME280;63567;49.956;20.130;2023-06-14T02:22:38;96873.69;;;11.60;81.23
75013;BME280;63567;49.956;20.130;2023-06-14T02:25:04;96861.66;;;11.58;80.94
75013;BME280;63567;49.956;20.130;2023-06-14T02:27:29;96870.63;;;11.57;80.50
75013;BME280;63567;49.956;20.130;2023-06-14T02:29:54;96869.59;;;11.58;80.62
75013;BME280;63567;49.956;20.130;2023-06-14T02:32:19;96859.25;;;11.56;81.06
75013;BME280;63567;49.956;20.130;2023-06-14T02:34:46;96869.22;;;11.61;80.96
75013;BME280;63567;49.956;20.130;2023-06-14T02:37:15;96867.78;;;11.58;80.90
75013;BME280;63567;49.956;20.130;2023-06-14T02:39:40;96861.06;;;11.56;81.07
75013;BME280;63567;49.956;20.130;2023-06-14T02:42:05;96877.31;;;11.59;80.93
75013;BME280;63567;49.956;20.130;2023-06-14T02:44:31;96861.88;;;11.56;81.12
75013;BME280;63567;49.956;20.130;2023-06-14T02:46:57;96869.41;;;11.59;81.34
75013;BME280;63567;49.956;20.130;2023-06-14T02:49:23;96873.69;;;11.60;81.55
75013;BME280;63567;49.956;20.130;2023-06-14T02:51:49;96864.13;;;11.59;81.64
75013;BME280;63567;49.956;20.130;2023-06-14T02:54:14;96858.63;;;11.54;81.52
75013;BME280;63567;49.956;20.130;2023-06-14T02:56:39;96867.56;;;11.60;81.26
75013;BME280;63567;49.956;20.130;2023-06-14T02:59:06;96870.00;;;11.61;81.47
75013;BME280;63567;49.956;20.130;2023-06-14T03:01:32;96868.78;;;11.57;81.51
75013;BME280;63567;49.956;20.130;2023-06-14T03:04:03;96868.78;;;11.57;81.74
75013;BME280;63567;49.956;20.130;2023-06-14T03:06:29;96873.47;;;11.62;81.50
75013;BME280;63567;49.956;20.130;2023-06-14T03:08:56;96856.19;;;11.52;82.03
75013;BME280;63567;49.956;20.130;2023-06-14T03:11:25;96874.25;;;11.62;81.94
75013;BME280;63567;49.956;20.130;2023-06-14T03:13:51;96862.69;;;11.57;82.21
75013;BME280;63567;49.956;20.130;2023-06-14T03:16:17;96863.72;;;11.62;81.86
75013;BME280;63567;49.956;20.130;2023-06-14T03:18:45;96868.78;;;11.64;81.84
75013;BME280;63567;49.956;20.130;2023-06-14T03:21:10;96869.00;;;11.62;82.25
75013;BME280;63567;49.956;20.130;2023-06-14T03:23:36;96881.59;;;11.67;82.33
75013;BME280;63567;49.956;20.130;2023-06-14T03:26:01;96870.63;;;11.63;82.24
75013;BME280;63567;49.956;20.130;2023-06-14T03:28:26;96870.81;;;11.62;81.87
75013;BME280;63567;49.956;20.130;2023-06-14T03:30:51;96877.75;;;11.63;82.41
75013;BME280;63567;49.956;20.130;2023-06-14T03:33:17;96869.00;;;11.62;82.34
75013;BME280;63567;49.956;20.130;2023-06-14T03:35:43;96862.91;;;11.62;82.28
75013;BME280;63567;49.956;20.130;2023-06-14T03:38:08;96863.13;;;11.60;82.60
75013;BME280;63567;49.956;20.130;2023-06-14T03:40:33;96861.47;;;11.59;82.27
75013;BME280;63567;49.956;20.130;2023-06-14T03:42:59;96880.16;;;11.64;82.25
75013;BME280;63567;49.956;20.130;2023-06-14T03:45:24;96872.84;;;11.66;82.17
75013;BME280;63567;49.956;20.130;2023-06-14T03:47:49;96868.00;;;11.63;82.50
75013;BME280;63567;49.956;20.130;2023-06-14T03:50:16;96873.28;;;11.63;82.42
75013;BME280;63567;49.956;20.130;2023-06-14T03:52:42;96872.25;;;11.64;82.71
75013;BME280;63567;49.956;20.130;2023-06-14T03:55:09;96872.84;;;11.66;82.38
75013;BME280;63567;49.956;20.130;2023-06-14T03:57:35;96881.19;;;11.70;82.94
75013;BME280;63567;49.956;20.130;2023-06-14T04:00:00;96874.50;;;11.67;83.12
75013;BME280;63567;49.956;20.130;2023-06-14T04:02:25;96879.38;;;11.70;83.32
75013;BME280;63567;49.956;20.130;2023-06-14T04:04:54;96873.09;;;11.71;83.91
75013;BME280;63567;49.956;20.130;2023-06-14T04:07:19;96879.97;;;11.72;83.84
75013;BME280;63567;49.956;20.130;2023-06-14T04:09:45;96876.53;;;11.72;84.13
75013;BME280;63567;49.956;20.130;2023-06-14T04:12:11;96874.69;;;11.66;84.12
75013;BME280;63567;49.956;20.130;2023-06-14T04:14:37;96876.13;;;11.68;84.33
75013;BME280;63567;49.956;20.130;2023-06-14T04:17:02;96877.94;;;11.68;84.28
75013;BME280;63567;49.956;20.130;2023-06-14T04:19:27;96882.41;;;11.67;84.09
75013;BME280;63567;49.956;20.130;2023-06-14T04:21:53;96887.69;;;11.67;84.38
75013;BME280;63567;49.956;20.130;2023-06-14T04:24:18;96886.28;;;11.65;84.03
75013;BME280;63567;49.956;20.130;2023-06-14T04:26:44;96880.16;;;11.64;83.95
75013;BME280;63567;49.956;20.130;2023-06-14T04:29:11;96873.69;;;11.60;84.62
75013;BME280;63567;49.956;20.130;2023-06-14T04:31:42;96877.31;;;11.59;83.83
75013;BME280;63567;49.956;20.130;2023-06-14T04:34:08;96887.47;;;11.62;84.34
75013;BME280;63567;49.956;20.130;2023-06-14T04:36:34;96896.81;;;11.65;84.04
75013;BME280;63567;49.956;20.130;2023-06-14T04:39:02;96893.94;;;11.60;84.09
75013;BME280;63567;49.956;20.130;2023-06-14T04:41:32;96890.94;;;11.63;83.74
75013;BME280;63567;49.956;20.130;2023-06-14T04:43:58;96885.84;;;11.61;83.73
75013;BME280;63567;49.956;20.130;2023-06-14T04:46:27;96885.84;;;11.61;83.87
75013;BME280;63567;49.956;20.130;2023-06-14T04:48:53;96891.75;;;11.63;83.97
75013;BME280;63567;49.956;20.130;2023-06-14T04:51:19;96887.69;;;11.61;84.54
75013;BME280;63567;49.956;20.130;2023-06-14T04:53:47;96889.72;;;11.65;84.48
75013;BME280;63567;49.956;20.130;2023-06-14T04:56:14;96881.00;;;11.65;84.73
75013;BME280;63567;49.956;20.130;2023-06-14T04:58:40;96879.53;;;11.62;85.27
75013;BME280;63567;49.956;20.130;2023-06-14T05:01:05;96881.81;;;11.65;85.56
75013;BME280;63567;49.956;20.130;2023-06-14T05:03:30;96892.34;;;11.65;85.98
75013;BME280;63567;49.956;20.130;2023-06-14T05:05:56;96896.03;;;11.71;86.31
75013;BME280;63567;49.956;20.130;2023-06-14T05:08:22;96893.97;;;11.66;86.80
75013;BME280;63567;49.956;20.130;2023-06-14T05:10:49;96898.47;;;11.72;85.83
75013;BME280;63567;49.956;20.130;2023-06-14T05:13:14;96895.00;;;11.72;86.00
75013;BME280;63567;49.956;20.130;2023-06-14T05:15:39;96897.25;;;11.75;86.13
75013;BME280;63567;49.956;20.130;2023-06-14T05:18:05;96898.47;;;11.79;86.80
75013;BME280;63567;49.956;20.130;2023-06-14T05:20:30;96894.59;;;11.75;85.69
75013;BME280;63567;49.956;20.130;2023-06-14T05:22:55;96895.22;;;11.77;86.28
75013;BME280;63567;49.956;20.130;2023-06-14T05:25:22;96893.19;;;11.79;86.16
75013;BME280;63567;49.956;20.130;2023-06-14T05:27:48;96881.63;;;11.80;86.39
75013;BME280;63567;49.956;20.130;2023-06-14T05:30:14;96894.03;;;11.80;86.47
75013;BME280;63567;49.956;20.130;2023-06-14T05:32:39;96894.22;;;11.85;87.15
75013;BME280;63567;49.956;20.130;2023-06-14T05:35:05;96898.28;;;11.87;87.13
75013;BME280;63567;49.956;20.130;2023-06-14T05:37:31;96907.06;;;11.95;86.49
75013;BME280;63567;49.956;20.130;2023-06-14T05:39:56;96905.25;;;11.95;87.06
75013;BME280;63567;49.956;20.130;2023-06-14T05:42:22;96898.53;;;11.92;87.15
75013;BME280;63567;49.956;20.130;2023-06-14T05:44:47;96907.69;;;11.97;87.26
75013;BME280;63567;49.956;20.130;2023-06-14T05:47:12;96911.16;;;11.97;86.59
75013;BME280;63567;49.956;20.130;2023-06-14T05:49:37;96906.88;;;11.96;86.27
75013;BME280;63567;49.956;20.130;2023-06-14T05:52:03;96907.50;;;11.98;85.79
75013;BME280;63567;49.956;20.130;2023-06-14T05:54:28;96911.16;;;11.97;85.98
75013;BME280;63567;49.956;20.130;2023-06-14T05:56:53;96910.13;;;11.98;86.39
75013;BME280;63567;49.956;20.130;2023-06-14T05:59:19;96910.94;;;11.99;86.35
75013;BME280;63567;49.956;20.130;2023-06-14T06:01:44;96912.56;;;12.00;86.58
75013;BME280;63567;49.956;20.130;2023-06-14T06:04:09;96912.78;;;11.98;86.15
75013;BME280;63567;49.956;20.130;2023-06-14T06:06:35;96910.94;;;11.99;85.39
75013;BME280;63567;49.956;20.130;2023-06-14T06:09:00;96918.66;;;12.00;85.63
75013;BME280;63567;49.956;20.130;2023-06-14T06:11:26;96919.72;;;12.06;85.14
75013;BME280;63567;49.956;20.130;2023-06-14T06:13:51;96920.50;;;12.00;86.19
75013;BME280;63567;49.956;20.130;2023-06-14T06:16:16;96921.50;;;11.99;86.43
75013;BME280;63567;49.956;20.130;2023-06-14T06:18:41;96934.31;;;12.02;87.07
75013;BME280;63567;49.956;20.130;2023-06-14T06:21:07;96934.50;;;12.00;87.08
75013;BME280;63567;49.956;20.130;2023-06-14T06:23:32;96933.09;;;11.98;87.20
75013;BME280;63567;49.956;20.130;2023-06-14T06:25:57;96933.69;;;12.00;86.30
75013;BME280;63567;49.956;20.130;2023-06-14T06:28:23;96931.88;;;12.00;85.88
75013;BME280;63567;49.956;20.130;2023-06-14T06:30:48;96927.81;;;11.98;85.81
75013;BME280;63567;49.956;20.130;2023-06-14T06:33:13;96937.16;;;12.00;85.32
75013;BME280;63567;49.956;20.130;2023-06-14T06:35:39;96940.41;;;12.02;85.44
75013;BME280;63567;49.956;20.130;2023-06-14T06:38:05;96939.38;;;12.03;85.18
75013;BME280;63567;49.956;20.130;2023-06-14T06:40:30;96940.59;;;12.01;85.28
75013;BME280;63567;49.956;20.130;2023-06-14T06:42:55;96941.00;;;11.98;85.86
75013;BME280;63567;49.956;20.130;2023-06-14T06:45:21;96944.03;;;12.01;85.81
75013;BME280;63567;49.956;20.130;2023-06-14T06:47:48;96959.50;;;12.04;85.57
75013;BME280;63567;49.956;20.130;2023-06-14T06:50:13;96958.28;;;12.07;85.50
75013;BME280;63567;49.956;20.130;2023-06-14T06:52:39;96955.66;;;12.07;86.08
75013;BME280;63567;49.956;20.130;2023-06-14T06:55:04;96951.38;;;12.06;85.74
75013;BME280;63567;49.956;20.130;2023-06-14T06:57:29;96957.28;;;12.08;86.56
75013;BME280;63567;49.956;20.130;2023-06-14T06:59:55;96950.97;;;12.02;86.93
75013;BME280;63567;49.956;20.130;2023-06-14T07:02:20;96960.31;;;12.05;87.49
75013;BME280;63567;49.956;20.130;2023-06-14T07:04:45;96956.88;;;12.04;88.17
75013;BME280;63567;49.956;20.130;2023-06-14T07:07:11;96964.97;;;12.09;87.98
75013;BME280;63567;49.956;20.130;2023-06-14T07:09:37;96965.22;;;12.08;87.92
75013;BME280;63567;49.956;20.130;2023-06-14T07:12:02;96970.09;;;12.18;87.71
75013;BME280;63567;49.956;20.130;2023-06-14T07:14:27;96971.31;;;12.15;88.10
75013;BME280;63567;49.956;20.130;2023-06-14T07:16:55;96975.78;;;12.21;87.17
75013;BME280;63567;49.956;20.130;2023-06-14T07:19:20;96978.22;;;12.23;87.31
75013;BME280;63567;49.956;20.130;2023-06-14T07:21:45;96968.69;;;12.28;86.92
75013;BME280;63567;49.956;20.130;2023-06-14T07:24:11;96972.94;;;12.29;86.84
75013;BME280;63567;49.956;20.130;2023-06-14T07:26:36;96970.34;;;12.36;87.82
75013;BME280;63567;49.956;20.130;2023-06-14T07:29:02;96981.13;;;12.41;87.62
75013;BME280;63567;49.956;20.130;2023-06-14T07:31:27;96975.03;;;12.41;87.30
75013;BME280;63567;49.956;20.130;2023-06-14T07:33:53;96978.88;;;12.45;87.52
75013;BME280;63567;49.956;20.130;2023-06-14T07:36:18;96972.78;;;12.44;87.50
75013;BME280;63567;49.956;20.130;2023-06-14T07:38:43;96979.09;;;12.43;87.54
75013;BME280;63567;49.956;20.130;2023-06-14T07:41:09;96978.66;;;12.46;87.21
75013;BME280;63567;49.956;20.130;2023-06-14T07:43:34;96982.94;;;12.47;86.25
75013;BME280;63567;49.956;20.130;2023-06-14T07:46:00;96981.72;;;12.50;86.35
75013;BME280;63567;49.956;20.130;2023-06-14T07:48:25;96996.38;;;12.59;86.27
75013;BME280;63567;49.956;20.130;2023-06-14T07:50:51;96988.44;;;12.59;86.15
75013;BME280;63567;49.956;20.130;2023-06-14T07:53:16;96987.44;;;12.67;86.43
75013;BME280;63567;49.956;20.130;2023-06-14T07:55:41;96992.50;;;12.68;86.66
75013;BME280;63567;49.956;20.130;2023-06-14T07:58:08;96991.09;;;12.72;86.04
75013;BME280;63567;49.956;20.130;2023-06-14T08:00:34;96982.16;;;12.73;85.69
75013;BME280;63567;49.956;20.130;2023-06-14T08:02:59;96994.97;;;12.83;85.70
75013;BME280;63567;49.956;20.130;2023-06-14T08:05:28;96996.00;;;12.89;86.54
75013;BME280;63567;49.956;20.130;2023-06-14T08:07:54;96986.22;;;12.89;86.67
75013;BME280;63567;49.956;20.130;2023-06-14T08:10:20;96997.41;;;12.98;87.14
75013;BME280;63567;49.956;20.130;2023-06-14T08:12:45;96995.38;;;13.00;86.77
75013;BME280;63567;49.956;20.130;2023-06-14T08:15:10;96997.41;;;12.98;85.56
75013;BME280;63567;49.956;20.130;2023-06-14T08:17:36;96991.69;;;12.94;84.74
75013;BME280;63567;49.956;20.130;2023-06-14T08:20:02;96990.28;;;12.99;85.45
75013;BME280;63567;49.956;20.130;2023-06-14T08:22:29;96994.56;;;13.00;86.63
75013;BME280;63567;49.956;20.130;2023-06-14T08:24:57;96993.16;;;12.97;86.25
75013;BME280;63567;49.956;20.130;2023-06-14T08:27:23;96994.16;;;12.96;87.69
75013;BME280;63567;49.956;20.130;2023-06-14T08:29:48;96994.75;;;12.91;87.64
75013;BME280;63567;49.956;20.130;2023-06-14T08:32:13;97004.72;;;12.96;85.92
75013;BME280;63567;49.956;20.130;2023-06-14T08:34:38;97002.69;;;12.91;84.02
75013;BME280;63567;49.956;20.130;2023-06-14T08:37:04;97000.06;;;12.91;84.01
75013;BME280;63567;49.956;20.130;2023-06-14T08:39:30;97004.13;;;12.94;83.88
75013;BME280;63567;49.956;20.130;2023-06-14T08:41:56;97016.72;;;12.99;84.40
75013;BME280;63567;49.956;20.130;2023-06-14T08:44:22;97010.00;;;13.03;86.00
75013;BME280;63567;49.956;20.130;2023-06-14T08:46:47;97017.13;;;13.02;86.72
75013;BME280;63567;49.956;20.130;2023-06-14T08:49:13;97006.38;;;12.97;86.28
75013;BME280;63567;49.956;20.130;2023-06-14T08:51:41;97014.06;;;12.99;84.00
75013;BME280;63567;49.956;20.130;2023-06-14T08:54:09;97016.94;;;12.97;84.20
75013;BME280;63567;49.956;20.130;2023-06-14T08:56:37;97022.63;;;13.01;85.42
75013;BME280;63567;49.956;20.130;2023-06-14T08:59:03;97020.41;;;12.98;85.84
75013;BME280;63567;49.956;20.130;2023-06-14T09:01:33;97025.50;;;12.99;86.41
75013;BME280;63567;49.956;20.130;2023-06-14T09:03:59;97030.78;;;12.99;86.71
75013;BME280;63567;49.956;20.130;2023-06-14T09:06:24;97022.84;;;12.92;85.71
75013;BME280;63567;49.956;20.130;2023-06-14T09:08:50;97027.28;;;12.99;86.01
75013;BME280;63567;49.956;20.130;2023-06-14T09:11:18;97034.41;;;12.98;85.61
75013;BME280;63567;49.956;20.130;2023-06-14T09:13:45;97038.50;;;13.01;84.83
75013;BME280;63567;49.956;20.130;2023-06-14T09:16:11;97035.03;;;13.00;84.87
75013;BME280;63567;49.956;20.130;2023-06-14T09:18:37;97042.97;;;13.07;85.52
75013;BME280;63567;49.956;20.130;2023-06-14T09:21:03;97036.06;;;13.12;85.78
75013;BME280;63567;49.956;20.130;2023-06-14T09:23:33;97032.78;;;13.17;85.90
75013;BME280;63567;49.956;20.130;2023-06-14T09:26:01;97037.28;;;13.23;86.18
75013;BME280;63567;49.956;20.130;2023-06-14T09:28:27;97032.59;;;13.25;86.67
75013;BME280;63567;49.956;20.130;2023-06-14T09:30:52;97031.78;;;13.31;86.45
75013;BME280;63567;49.956;20.130;2023-06-14T09:33:18;97026.72;;;13.37;87.82
75013;BME280;63567;49.956;20.130;2023-06-14T09:35:45;97028.91;;;13.46;88.15
75013;BME280;63567;49.956;20.130;2023-06-14T09:38:11;97019.97;;;13.47;87.67
75013;BME280;63567;49.956;20.130;2023-06-14T09:40:36;97025.84;;;13.63;87.22
75013;BME280;63567;49.956;20.130;2023-06-14T09:43:05;97023.38;;;13.68;87.56
75013;BME280;63567;49.956;20.130;2023-06-14T09:45:31;97024.56;;;13.79;88.09
75013;BME280;63567;49.956;20.130;2023-06-14T09:47:58;97015.38;;;13.81;88.16
75013;BME280;63567;49.956;20.130;2023-06-14T09:50:23;97018.59;;;13.90;88.99
75013;BME280;63567;49.956;20.130;2023-06-14T09:52:50;97019.22;;;13.92;87.22
75013;BME280;63567;49.956;20.130;2023-06-14T09:55:18;97014.50;;;14.01;87.96
75013;BME280;63567;49.956;20.130;2023-06-14T09:57:45;97016.13;;;14.02;86.99
75013;BME280;63567;49.956;20.130;2023-06-14T10:00:13;97019.56;;;14.09;86.28
75013;BME280;63567;49.956;20.130;2023-06-14T10:02:42;97016.47;;;14.18;86.36
75013;BME280;63567;49.956;20.130;2023-06-14T10:05:09;97021.34;;;14.22;85.95
75013;BME280;63567;49.956;20.130;2023-06-14T10:10:07;97018.84;;;14.33;85.87
75013;BME280;63567;49.956;20.130;2023-06-14T10:12:33;97028.38;;;14.41;86.51
75013;BME280;63567;49.956;20.130;2023-06-14T10:14:59;97031.41;;;14.45;85.42
75013;BME280;63567;49.956;20.130;2023-06-14T10:17:27;97032.38;;;14.50;85.33
75013;BME280;63567;49.956;20.130;2023-06-14T10:20:26;97040.94;;;14.52;85.00
75013;BME280;63567;49.956;20.130;2023-06-14T10:23:08;97036.06;;;14.49;84.36
75013;BME280;63567;49.956;20.130;2023-06-14T10:25:35;97035.03;;;14.50;83.93
75013;BME280;63567;49.956;20.130;2023-06-14T10:28:17;97041.16;;;14.57;83.81
75013;BME280;63567;49.956;20.130;2023-06-14T10:31:05;97034.00;;;14.58;83.72
75013;BME280;63567;49.956;20.130;2023-06-14T10:33:32;97030.13;;;14.61;83.49
75013;BME280;63567;49.956;20.130;2023-06-14T10:38:32;97026.81;;;14.65;83.51
75013;BME280;63567;49.956;20.130;2023-06-14T10:40:59;97032.53;;;14.69;83.54
75013;BME280;63567;49.956;20.130;2023-06-14T10:43:25;97036.72;;;14.76;84.16
75013;BME280;63567;49.956;20.130;2023-06-14T10:46:16;97042.44;;;14.80;83.75
75013;BME280;63567;49.956;20.130;2023-06-14T10:48:43;97033.66;;;14.79;83.43
75013;BME280;63567;49.956;20.130;2023-06-14T10:51:19;97043.19;;;14.87;83.37
75013;BME280;63567;49.956;20.130;2023-06-14T10:53:47;97041.97;;;14.90;83.00
75013;BME280;63567;49.956;20.130;2023-06-14T10:56:29;97037.63;;;14.95;83.41
75013;BME280;63567;49.956;20.130;2023-06-14T10:58:57;97030.06;;;14.99;83.64
75013;BME280;63567;49.956;20.130;2023-06-14T11:01:36;97023.88;;;15.05;84.12
75013;BME280;63567;49.956;20.130;2023-06-14T11:04:09;97033.00;;;15.16;84.66
75013;BME280;63567;49.956;20.130;2023-06-14T11:06:45;97034.34;;;15.25;84.44
75013;BME280;63567;49.956;20.130;2023-06-14T11:12:10;97021.59;;;15.34;84.11
75013;BME280;63567;49.956;20.130;2023-06-14T11:14:37;97024.31;;;15.46;84.90
75013;BME280;63567;49.956;20.130;2023-06-14T11:17:03;97026.03;;;15.58;85.44
75013;BME280;63567;49.956;20.130;2023-06-14T11:19:29;97023.66;;;15.75;85.70
75013;BME280;63567;49.956;20.130;2023-06-14T11:21:54;97018.63;;;15.86;85.61
75013;BME280;63567;49.956;20.130;2023-06-14T11:24:19;97027.63;;;16.03;85.21
75013;BME280;63567;49.956;20.130;2023-06-14T11:26:46;97022.28;;;16.21;85.81
75013;BME280;63567;49.956;20.130;2023-06-14T11:29:14;97017.47;;;16.30;84.25
75013;BME280;63567;49.956;20.130;2023-06-14T11:31:43;97011.16;;;16.43;84.31
75013;BME280;63567;49.956;20.130;2023-06-14T11:34:10;97014.56;;;16.62;83.57
75013;BME280;63567;49.956;20.130;2023-06-14T11:36:37;97011.94;;;16.74;82.58
75013;BME280;63567;49.956;20.130;2023-06-14T11:39:03;97019.06;;;16.92;81.99
75013;BME280;63567;49.956;20.130;2023-06-14T11:41:44;97014.81;;;17.02;82.19
75013;BME280;63567;49.956;20.130;2023-06-14T11:44:09;97019.31;;;17.14;81.92
75013;BME280;63567;49.956;20.130;2023-06-14T11:46:35;97016.44;;;17.27;81.67
75013;BME280;63567;49.956;20.130;2023-06-14T11:49:02;97000.00;;;17.42;81.29
75013;BME280;63567;49.956;20.130;2023-06-14T11:51:33;96997.75;;;17.74;82.95
75013;BME280;63567;49.956;20.130;2023-06-14T11:53:59;97000.94;;;18.12;83.77
75013;BME280;63567;49.956;20.130;2023-06-14T11:56:25;97001.28;;;18.44;83.75
75013;BME280;63567;49.956;20.130;2023-06-14T11:58:52;97000.72;;;18.87;83.55
75013;BME280;63567;49.956;20.130;2023-06-14T12:01:19;96993.81;;;19.25;82.47
75013;BME280;63567;49.956;20.130;2023-06-14T12:03:52;96995.63;;;19.76;82.00
75013;BME280;63567;49.956;20.130;2023-06-14T12:06:26;96996.09;;;20.17;80.39
75013;BME280;63567;49.956;20.130;2023-06-14T12:08:55;96991.88;;;20.48;78.96
75013;BME280;63567;49.956;20.130;2023-06-14T12:11:21;96997.59;;;20.84;76.07
75013;BME280;63567;49.956;20.130;2023-06-14T12:13:48;96991.97;;;21.18;76.01
75013;BME280;63567;49.956;20.130;2023-06-14T12:16:13;97011.03;;;21.59;74.92
75013;BME280;63567;49.956;20.130;2023-06-14T12:18:40;96996.41;;;21.87;73.21
75013;BME280;63567;49.956;20.130;2023-06-14T12:21:07;97007.78;;;22.14;72.29
75013;BME280;63567;49.956;20.130;2023-06-14T12:23:46;96998.75;;;22.31;71.48
75013;BME280;63567;49.956;20.130;2023-06-14T12:26:13;96992.59;;;22.41;67.97
75013;BME280;63567;49.956;20.130;2023-06-14T12:28:40;96995.84;;;22.58;68.22
75013;BME280;63567;49.956;20.130;2023-06-14T12:31:07;96991.56;;;22.62;65.10
75013;BME280;63567;49.956;20.130;2023-06-14T12:33:32;96990.50;;;22.79;66.20
75013;BME280;63567;49.956;20.130;2023-06-14T12:35:57;96986.47;;;22.91;65.29
75013;BME280;63567;49.956;20.130;2023-06-14T12:38:24;96976.56;;;23.12;65.47
75013;BME280;63567;49.956;20.130;2023-06-14T12:40:49;96987.28;;;23.38;65.10
75013;BME280;63567;49.956;20.130;2023-06-14T12:43:15;96981.03;;;23.53;64.78
75013;BME280;63567;49.956;20.130;2023-06-14T12:45:40;96981.56;;;23.65;64.25
75013;BME280;63567;49.956;20.130;2023-06-14T12:48:05;96981.00;;;23.84;63.02
75013;BME280;63567;49.956;20.130;2023-06-14T12:50:31;96988.16;;;24.09;62.90
75013;BME280;63567;49.956;20.130;2023-06-14T12:52:56;96979.38;;;24.37;64.02
75013;BME280;63567;49.956;20.130;2023-06-14T12:55:21;96978.84;;;24.80;62.90